Terminal Aerodrome Forecast
Issued by NWS

Home | Current Version | Previous Version | Graphics & Text | Print | Product List | Glossary On
Versions: 1 2 3 4 5 6 7 8 9 10 11 12 13 14 15 16 17 18 19
000
FTUS43 KBIS 280311 AAA
TAFJMS
TAF AMD
KJMS 280311Z 2803/2824 13013G21KT P6SM BKN080
     FM280400 15011G19KT P6SM VCTS SCT050CB BKN080
      TEMPO 2805/2807 28015G25KT 1SM +TSRA BKN035CB
     FM280700 26007KT P6SM SCT030 BKN050
     FM281100 30010KT P6SM SCT010 BKN035
     FM281600 31016G24KT P6SM FEW040 SCT150=

USA.gov is the U.S. government's official web portal to all federal, state and local government web resources and services.